Time;durP1;ratioP1;P1;durP2;ratioP2;P2;SDS_P1;SDS_P2;PMS_P1;PMS_P2;Temp;Humidity;BMP_temperature;BMP_pressure;BME280_temperature;BME280_humidity;BME280_pressure;Samples;Min_cycle;Max_cycle;Signal;HPM_P1;HPM_P2
2023/10/24 00:01:58;;;;;;;13.90;12.67;;;11.20;1.00;;;;;;5140157;27;20505;-70
2023/10/24 00:04:26;;;;;;;12.93;11.83;;;11.20;1.00;;;;;;5132616;27;20464;-68
2023/10/24 00:06:53;;;;;;;13.43;12.10;;;11.20;1.00;;;;;;5129848;27;20457;-68
2023/10/24 00:09:20;;;;;;;13.90;12.70;;;11.20;1.00;;;;;;5129120;27;20457;-70
2023/10/24 00:11:47;;;;;;;12.90;11.70;;;11.20;1.00;;;;;;5127732;27;20545;-70
2023/10/24 00:14:15;;;;;;;13.30;12.07;;;11.10;1.00;;;;;;5127653;27;20542;-71
2023/10/24 00:16:42;;;;;;;15.30;13.90;;;11.10;1.00;;;;;;5140935;27;20918;-74
2023/10/24 00:19:09;;;;;;;14.37;12.97;;;11.10;1.00;;;;;;5142127;27;20445;-71
2023/10/24 00:21:36;;;;;;;14.17;13.03;;;11.10;1.00;;;;;;5128048;27;20478;-70
2023/10/24 00:24:03;;;;;;;15.77;14.37;;;11.00;1.00;;;;;;5140990;27;20894;-70
2023/10/24 00:26:30;;;;;;;14.43;13.10;;;11.10;1.00;;;;;;5148199;27;22416;-71
2023/10/24 00:28:57;;;;;;;14.60;13.30;;;11.10;1.00;;;;;;5128294;27;20444;-71
2023/10/24 00:31:25;;;;;;;13.83;12.53;;;11.10;1.00;;;;;;5127875;27;20615;-71
2023/10/24 00:33:52;;;;;;;14.57;13.27;;;11.10;1.00;;;;;;5128285;27;20454;-69
2023/10/24 00:36:19;;;;;;;14.90;13.47;;;11.10;1.00;;;;;;5127495;27;20472;-69
2023/10/24 00:38:45;;;;;;;15.43;13.90;;;11.10;1.00;;;;;;5146264;27;20529;-71
2023/10/24 00:41:12;;;;;;;17.50;14.20;;;11.10;1.00;;;;;;5128293;27;20557;-70
2023/10/24 00:43:39;;;;;;;15.07;13.53;;;11.10;1.00;;;;;;5132262;27;21604;-69
2023/10/24 00:46:06;;;;;;;15.83;14.10;;;11.10;1.00;;;;;;5142655;27;20474;-69
2023/10/24 00:48:35;;;;;;;15.50;14.00;;;11.00;1.00;;;;;;5128896;27;20625;-69
2023/10/24 00:51:02;;;;;;;15.77;14.07;;;11.00;1.00;;;;;;5129606;27;20535;-69
2023/10/24 00:53:29;;;;;;;14.93;13.30;;;11.00;1.00;;;;;;5137005;27;20476;-70
2023/10/24 00:55:57;;;;;;;15.47;13.90;;;11.00;1.00;;;;;;5148712;27;20463;-70
2023/10/24 00:58:24;;;;;;;15.50;14.07;;;11.10;1.00;;;;;;5133385;27;20535;-70
2023/10/24 01:00:52;;;;;;;17.10;13.37;;;11.10;1.00;;;;;;5149064;27;20533;-68
2023/10/24 01:03:19;;;;;;;15.07;13.57;;;11.10;1.00;;;;;;5140830;27;20463;-69
2023/10/24 01:05:48;;;;;;;14.37;12.90;;;11.20;1.00;;;;;;5136184;27;20445;-69
2023/10/24 01:08:16;;;;;;;15.83;14.20;;;11.10;1.00;;;;;;5128141;27;20468;-74
2023/10/24 01:10:43;;;;;;;15.40;13.43;;;11.00;1.00;;;;;;5146238;27;21763;-69
2023/10/24 01:13:10;;;;;;;12.90;11.80;;;11.00;1.00;;;;;;5149606;27;20544;-72
2023/10/24 01:15:37;;;;;;;14.77;13.27;;;11.10;1.00;;;;;;5147680;27;20510;-70
2023/10/24 01:18:04;;;;;;;14.70;13.40;;;11.10;1.00;;;;;;5151418;27;21020;-69
2023/10/24 01:20:31;;;;;;;15.53;13.93;;;11.10;1.00;;;;;;5129463;27;20559;-68
2023/10/24 01:22:59;;;;;;;15.97;14.40;;;11.10;1.00;;;;;;5134082;27;21042;-68
2023/10/24 01:25:29;;;;;;;18.40;13.40;;;11.10;1.00;;;;;;5141097;27;20551;-72
2023/10/24 01:27:57;;;;;;;16.13;14.63;;;11.10;1.00;;;;;;5143427;27;20536;-69
2023/10/24 01:30:23;;;;;;;14.43;13.20;;;11.10;1.00;;;;;;5132959;27;20620;-71
2023/10/24 01:32:50;;;;;;;16.50;14.90;;;11.10;1.00;;;;;;5142972;27;21094;-70
2023/10/24 01:35:16;;;;;;;15.03;13.43;;;11.10;1.00;;;;;;5128698;27;21465;-69
2023/10/24 01:37:43;;;;;;;15.00;13.40;;;11.10;1.00;;;;;;5127828;27;20492;-68
2023/10/24 01:40:12;;;;;;;14.43;12.90;;;11.20;1.00;;;;;;5141326;27;20554;-69
2023/10/24 01:42:39;;;;;;;14.87;13.47;;;11.30;1.00;;;;;;5129361;27;20503;-72
2023/10/24 01:45:07;;;;;;;15.70;14.03;;;11.20;1.00;;;;;;5142541;27;20471;-69
2023/10/24 01:47:34;;;;;;;13.80;12.50;;;11.30;1.00;;;;;;5126706;27;20538;-71
2023/10/24 01:50:02;;;;;;;15.20;13.77;;;11.20;1.00;;;;;;5132046;27;20592;-70
2023/10/24 01:52:29;;;;;;;16.00;14.40;;;11.20;1.00;;;;;;5145468;27;21655;-69
2023/10/24 01:54:56;;;;;;;15.93;14.27;;;11.10;1.00;;;;;;5130001;27;21323;-69
2023/10/24 01:57:27;;;;;;;15.53;13.97;;;11.20;1.00;;;;;;5133268;27;20512;-67
2023/10/24 01:59:53;;;;;;;14.47;13.17;;;11.20;1.00;;;;;;5147402;27;20450;-69
2023/10/24 02:02:20;;;;;;;15.53;13.90;;;11.20;1.00;;;;;;5147492;27;20569;-68
2023/10/24 02:04:48;;;;;;;15.43;13.10;;;11.20;1.00;;;;;;5124963;27;21909;-71
2023/10/24 02:07:15;;;;;;;15.20;13.70;;;11.20;1.00;;;;;;5133067;27;20962;-69
2023/10/24 02:09:42;;;;;;;19.00;13.97;;;11.20;1.00;;;;;;5139230;27;20452;-69
2023/10/24 02:12:10;;;;;;;15.47;13.97;;;11.20;1.00;;;;;;5130237;27;20596;-71
2023/10/24 02:14:38;;;;;;;15.53;13.80;;;11.30;1.00;;;;;;5122622;27;21457;-69
2023/10/24 02:17:05;;;;;;;14.80;13.40;;;11.30;1.00;;;;;;5126053;27;20480;-72
2023/10/24 02:19:33;;;;;;;15.40;13.80;;;11.30;1.00;;;;;;5129640;27;20531;-69
2023/10/24 02:22:00;;;;;;;15.20;12.63;;;11.30;1.00;;;;;;5149249;27;20567;-70
2023/10/24 02:24:27;;;;;;;14.97;13.53;;;11.40;1.00;;;;;;5135771;27;20545;-69
2023/10/24 02:26:54;;;;;;;13.53;12.20;;;11.40;1.00;;;;;;5121915;27;21269;-70
2023/10/24 02:29:21;;;;;;;15.23;13.53;;;11.50;1.00;;;;;;5123857;27;20526;-71
2023/10/24 02:31:50;;;;;;;14.57;13.07;;;11.50;1.00;;;;;;5128028;27;20464;-70
2023/10/24 02:34:17;;;;;;;14.83;12.87;;;11.40;1.00;;;;;;5127893;27;20449;-69
2023/10/24 02:36:43;;;;;;;17.60;14.00;;;11.40;1.00;;;;;;5123823;27;21014;-70
2023/10/24 02:39:10;;;;;;;14.93;13.60;;;11.40;1.00;;;;;;5123318;27;20477;-70
2023/10/24 02:41:38;;;;;;;15.27;13.43;;;11.40;1.00;;;;;;5122421;27;20795;-72
2023/10/24 02:44:05;;;;;;;16.00;14.27;;;11.40;1.00;;;;;;5148180;27;20601;-73
2023/10/24 02:46:32;;;;;;;16.57;13.70;;;11.50;1.00;;;;;;5146766;27;20491;-70
2023/10/24 02:49:00;;;;;;;16.03;13.17;;;11.50;1.00;;;;;;5121823;27;20499;-68
2023/10/24 02:51:27;;;;;;;15.40;13.43;;;11.40;1.00;;;;;;5132633;27;20459;-70
2023/10/24 02:53:54;;;;;;;14.23;12.83;;;11.50;1.00;;;;;;5121422;27;20464;-69
2023/10/24 02:56:21;;;;;;;15.30;13.70;;;11.50;1.00;;;;;;5123585;27;20468;-72
2023/10/24 02:58:48;;;;;;;16.63;12.93;;;11.40;1.00;;;;;;5123071;27;20467;-69
2023/10/24 03:01:15;;;;;;;15.33;13.70;;;11.40;1.00;;;;;;5139628;27;20992;-69
2023/10/24 03:03:42;;;;;;;19.73;13.90;;;11.30;1.00;;;;;;5142146;27;20525;-74
2023/10/24 03:06:17;;;;;;;16.33;14.63;;;11.30;1.00;;;;;;5126674;27;20984;-70
2023/10/24 03:08:44;;;;;;;15.40;12.90;;;11.30;1.00;;;;;;5139756;27;20535;-70
2023/10/24 03:11:12;;;;;;;20.83;14.20;;;11.40;1.00;;;;;;5124902;27;20514;-74
2023/10/24 03:13:39;;;;;;;15.60;14.00;;;11.40;1.00;;;;;;5132305;27;20546;-71
2023/10/24 03:16:07;;;;;;;15.00;13.50;;;11.40;1.00;;;;;;5145868;27;20587;-69
2023/10/24 03:18:35;;;;;;;14.80;13.30;;;11.40;1.00;;;;;;5147197;27;20456;-70
2023/10/24 03:21:04;;;;;;;17.10;13.17;;;11.30;1.00;;;;;;5148943;27;20459;-70
2023/10/24 03:23:32;;;;;;;20.87;15.03;;;11.30;1.00;;;;;;5132285;27;20512;-69
2023/10/24 03:26:00;;;;;;;15.67;14.07;;;11.30;1.00;;;;;;5149569;27;20451;-71
2023/10/24 03:28:27;;;;;;;19.57;14.90;;;11.30;1.00;;;;;;5129998;27;20548;-70
2023/10/24 03:31:02;;;;;;;20.00;13.63;;;11.30;1.00;;;;;;5127841;27;20448;-69
2023/10/24 03:33:30;;;;;;;16.20;13.83;;;11.40;1.00;;;;;;5145889;27;20474;-70
2023/10/24 03:35:57;;;;;;;15.67;13.83;;;11.40;1.00;;;;;;5129460;27;20531;-70
2023/10/24 03:38:24;;;;;;;19.73;13.90;;;11.40;1.00;;;;;;5148744;27;20542;-70
2023/10/24 03:40:52;;;;;;;14.70;13.30;;;11.40;1.00;;;;;;5126834;27;20455;-68
2023/10/24 03:43:22;;;;;;;17.03;13.90;;;11.50;1.00;;;;;;5126566;27;20471;-67
2023/10/24 03:45:49;;;;;;;15.00;13.40;;;11.50;1.00;;;;;;5131002;27;20934;-69
2023/10/24 03:48:16;;;;;;;13.97;12.50;;;11.60;1.00;;;;;;5136359;27;20496;-68
2023/10/24 03:50:43;;;;;;;15.43;13.10;;;11.60;1.00;;;;;;5138442;27;20463;-76
2023/10/24 03:53:10;;;;;;;15.23;13.07;;;11.60;1.00;;;;;;5145955;27;20564;-70
2023/10/24 03:55:37;;;;;;;15.57;13.67;;;11.50;1.00;;;;;;5127498;27;20701;-70
2023/10/24 03:58:06;;;;;;;17.70;13.37;;;11.50;1.00;;;;;;5130031;27;20460;-71
2023/10/24 04:00:33;;;;;;;15.57;12.70;;;11.60;1.00;;;;;;5125474;27;20484;-70
2023/10/24 04:03:00;;;;;;;15.63;14.13;;;11.60;1.00;;;;;;5135010;27;21000;-71
2023/10/24 04:05:27;;;;;;;14.27;12.87;;;11.70;1.00;;;;;;5126636;27;20490;-74
2023/10/24 04:07:55;;;;;;;17.17;15.30;;;11.70;1.00;;;;;;5135611;27;20515;-72
2023/10/24 04:10:22;;;;;;;17.37;13.77;;;11.70;1.00;;;;;;5144628;27;21056;-70
2023/10/24 04:12:48;;;;;;;17.57;14.60;;;11.70;1.00;;;;;;5134909;27;20470;-71
2023/10/24 04:15:17;;;;;;;15.47;13.97;;;11.70;1.00;;;;;;5128882;27;20457;-70
2023/10/24 04:17:44;;;;;;;15.07;13.57;;;11.70;1.00;;;;;;5144110;27;20457;-69
2023/10/24 04:20:12;;;;;;;14.43;13.00;;;11.70;1.00;;;;;;5131529;27;20545;-69
2023/10/24 04:22:38;;;;;;;14.90;12.70;;;11.60;1.00;;;;;;5125373;27;20989;-71
2023/10/24 04:25:06;;;;;;;13.47;12.20;;;11.60;1.00;;;;;;5128195;27;20457;-67
2023/10/24 04:27:33;;;;;;;14.67;13.17;;;11.70;1.00;;;;;;5125211;27;20466;-68
2023/10/24 04:30:00;;;;;;;16.00;13.23;;;11.70;1.00;;;;;;5132024;27;20542;-68
2023/10/24 04:32:29;;;;;;;15.80;13.53;;;11.70;1.00;;;;;;5128550;27;21293;-75
2023/10/24 04:34:56;;;;;;;14.17;12.83;;;11.60;1.00;;;;;;5141578;27;20467;-69
2023/10/24 04:37:24;;;;;;;15.47;13.47;;;11.50;1.00;;;;;;5128180;27;20540;-68
2023/10/24 04:39:51;;;;;;;15.13;13.37;;;11.50;1.00;;;;;;5127852;27;20530;-70
2023/10/24 04:42:18;;;;;;;16.00;14.40;;;11.50;1.00;;;;;;5127936;27;20577;-69
2023/10/24 04:44:45;;;;;;;14.83;13.37;;;11.40;1.00;;;;;;5126176;27;20522;-69
2023/10/24 04:47:12;;;;;;;17.53;15.73;;;11.30;1.00;;;;;;5139334;27;20532;-68
2023/10/24 04:49:40;;;;;;;15.30;13.70;;;11.30;1.00;;;;;;5136286;27;20444;-73
2023/10/24 04:52:07;;;;;;;17.47;14.60;;;11.30;1.00;;;;;;5131611;27;20460;-74
2023/10/24 04:54:35;;;;;;;15.80;14.20;;;11.30;1.00;;;;;;5134026;27;20524;-72
2023/10/24 04:57:03;;;;;;;18.17;15.57;;;11.40;1.00;;;;;;5124822;27;20465;-71
2023/10/24 04:59:30;;;;;;;16.40;13.97;;;11.40;1.00;;;;;;5127656;27;20850;-71
2023/10/24 05:01:58;;;;;;;15.10;13.60;;;11.40;1.00;;;;;;5131983;27;20463;-71
2023/10/24 05:04:25;;;;;;;21.10;14.13;;;11.30;1.00;;;;;;5146054;27;20975;-72
2023/10/24 05:06:53;;;;;;;15.10;13.60;;;11.30;1.00;;;;;;5147033;27;20476;-72
2023/10/24 05:09:20;;;;;;;17.57;14.13;;;11.40;1.00;;;;;;5133033;27;20484;-71
2023/10/24 05:11:47;;;;;;;15.77;14.23;;;11.40;1.00;;;;;;5133474;27;20546;-71
2023/10/24 05:14:14;;;;;;;16.43;14.50;;;11.30;1.00;;;;;;5132124;27;20578;-74
2023/10/24 05:16:41;;;;;;;15.37;13.57;;;11.30;1.00;;;;;;5145196;27;20545;-73
2023/10/24 05:19:08;;;;;;;14.63;13.23;;;11.40;1.00;;;;;;5133997;27;20551;-71
2023/10/24 05:21:35;;;;;;;15.30;13.80;;;11.30;1.00;;;;;;5126491;27;20564;-71
2023/10/24 05:24:04;;;;;;;14.80;13.30;;;11.30;1.00;;;;;;5128883;27;20449;-73
2023/10/24 05:26:31;;;;;;;17.93;16.03;;;11.40;1.00;;;;;;5127487;27;20489;-71
2023/10/24 05:28:58;;;;;;;16.50;14.80;;;11.30;1.00;;;;;;5130884;27;20548;-71
2023/10/24 05:31:25;;;;;;;18.13;13.67;;;11.30;1.00;;;;;;5136835;27;20526;-71
2023/10/24 05:33:52;;;;;;;16.57;14.73;;;11.30;1.00;;;;;;5149060;27;20463;-71
2023/10/24 05:36:18;;;;;;;15.70;14.10;;;11.30;1.00;;;;;;5148283;27;21150;-72
2023/10/24 05:38:45;;;;;;;19.90;15.60;;;11.20;1.00;;;;;;5145509;27;20499;-72
2023/10/24 05:41:14;;;;;;;17.40;15.37;;;11.20;1.00;;;;;;5138741;27;20674;-71
2023/10/24 05:43:40;;;;;;;21.60;14.63;;;11.20;1.00;;;;;;5124137;27;20534;-71
2023/10/24 05:46:07;;;;;;;15.93;14.43;;;11.30;1.00;;;;;;5124092;27;20457;-72
2023/10/24 05:48:35;;;;;;;16.43;13.60;;;11.30;1.00;;;;;;5124454;27;20515;-71
2023/10/24 05:51:03;;;;;;;17.63;15.70;;;11.20;1.00;;;;;;5126753;27;20472;-71
2023/10/24 05:53:30;;;;;;;15.13;13.53;;;11.20;1.00;;;;;;5131967;27;20472;-71
2023/10/24 05:55:57;;;;;;;15.90;14.27;;;11.20;1.00;;;;;;5148481;27;20467;-72
2023/10/24 05:58:26;;;;;;;15.60;14.10;;;11.30;1.00;;;;;;5144836;27;20540;-72
2023/10/24 06:00:53;;;;;;;16.73;15.07;;;11.30;1.00;;;;;;5124679;27;20543;-68
2023/10/24 06:03:20;;;;;;;50.27;40.10;;;11.30;1.00;;;;;;5133289;27;21290;-70
2023/10/24 06:05:49;;;;;;;16.50;14.80;;;11.30;1.00;;;;;;5126163;27;20450;-74
2023/10/24 06:08:16;;;;;;;14.83;13.33;;;11.30;1.00;;;;;;5132380;27;20461;-74
2023/10/24 06:10:43;;;;;;;16.60;14.37;;;11.30;1.00;;;;;;5137376;27;21286;-68
2023/10/24 06:13:11;;;;;;;16.20;14.50;;;11.30;1.00;;;;;;5146570;27;20471;-69
2023/10/24 06:15:39;;;;;;;16.17;14.47;;;11.30;1.00;;;;;;5146220;27;20504;-72
2023/10/24 06:18:06;;;;;;;16.57;14.87;;;11.30;1.00;;;;;;5141194;27;20559;-70
2023/10/24 06:20:33;;;;;;;16.77;14.47;;;11.30;1.00;;;;;;5127138;27;20481;-70
2023/10/24 06:23:00;;;;;;;16.33;14.80;;;11.20;1.00;;;;;;5141127;27;20456;-71
2023/10/24 06:25:27;;;;;;;17.07;15.37;;;11.20;1.00;;;;;;5145970;27;20484;-72
2023/10/24 06:27:54;;;;;;;16.60;14.80;;;11.20;1.00;;;;;;5124880;27;21179;-71
2023/10/24 06:30:21;;;;;;;16.07;14.47;;;11.20;1.00;;;;;;5133325;27;21158;-72
2023/10/24 06:32:50;;;;;;;17.47;15.27;;;11.20;1.00;;;;;;5135266;27;20452;-73
2023/10/24 06:35:17;;;;;;;20.17;17.70;;;11.30;1.00;;;;;;5139640;27;20472;-71
2023/10/24 06:37:44;;;;;;;16.13;14.53;;;11.30;1.00;;;;;;5130776;27;20560;-70
2023/10/24 06:40:12;;;;;;;16.57;14.90;;;11.30;1.00;;;;;;5133139;27;20476;-69
2023/10/24 06:42:39;;;;;;;15.87;14.17;;;11.40;1.00;;;;;;5144306;27;20463;-70
2023/10/24 06:45:07;;;;;;;17.23;15.50;;;11.40;1.00;;;;;;5146702;27;20463;-74
2023/10/24 06:47:34;;;;;;;17.00;14.70;;;11.40;1.00;;;;;;5136057;27;22081;-70
2023/10/24 06:50:02;;;;;;;15.17;13.67;;;11.30;1.00;;;;;;5121438;27;20600;-70
2023/10/24 06:52:29;;;;;;;15.87;14.20;;;11.30;1.00;;;;;;5142659;27;20468;-72
2023/10/24 06:54:58;;;;;;;16.50;14.50;;;11.40;1.00;;;;;;5146862;27;20463;-69
2023/10/24 06:57:25;;;;;;;18.10;15.67;;;11.50;1.00;;;;;;5130119;27;20457;-69
2023/10/24 06:59:52;;;;;;;15.87;14.30;;;11.50;1.00;;;;;;5124418;27;21266;-73
2023/10/24 07:02:19;;;;;;;17.90;14.07;;;11.50;1.00;;;;;;5129871;27;20528;-69
2023/10/24 07:04:46;;;;;;;17.53;15.10;;;11.50;1.00;;;;;;5127274;27;20959;-69
2023/10/24 07:07:14;;;;;;;16.83;15.10;;;11.50;1.00;;;;;;5127599;27;20866;-69
2023/10/24 07:10:37;;;;;;;17.17;15.37;;;11.60;1.00;;;;;;5126267;27;20487;-72
2023/10/24 07:13:04;;;;;;;17.27;15.60;;;11.70;1.00;;;;;;5140274;27;20965;-70
2023/10/24 07:15:31;;;;;;;20.57;14.60;;;11.70;1.00;;;;;;5144099;27;21157;-68
2023/10/24 07:17:58;;;;;;;15.40;13.80;;;11.80;1.00;;;;;;5146096;27;20548;-70
2023/10/24 07:20:25;;;;;;;14.50;13.17;;;11.80;1.00;;;;;;5148527;27;20521;-75
2023/10/24 07:22:53;;;;;;;15.30;13.77;;;11.90;1.00;;;;;;5142895;27;20897;-72
2023/10/24 07:25:20;;;;;;;15.67;14.20;;;12.00;1.00;;;;;;5144957;27;20555;-70
2023/10/24 07:27:47;;;;;;;15.98;14.55;;;12.00;1.00;;;;;;5143691;27;20510;-69
2023/10/24 07:30:14;;;;;;;15.87;14.00;;;12.10;1.00;;;;;;5129642;27;20740;-70
2023/10/24 07:32:41;;;;;;;15.33;13.83;;;12.00;1.00;;;;;;5144477;27;20447;-69
2023/10/24 07:35:09;;;;;;;15.00;13.50;;;12.00;1.00;;;;;;5147276;27;20477;-70
2023/10/24 07:37:36;;;;;;;15.97;14.27;;;12.00;1.00;;;;;;5126182;27;20449;-70
2023/10/24 07:40:06;;;;;;;16.60;15.00;;;12.00;1.00;;;;;;5126181;27;20473;-72
2023/10/24 07:42:33;;;;;;;16.73;14.60;;;11.90;1.00;;;;;;5126290;27;20464;-73
2023/10/24 07:45:01;;;;;;;15.47;13.93;;;11.90;1.00;;;;;;5125720;27;20446;-72
2023/10/24 07:47:27;;;;;;;14.57;12.80;;;12.00;1.00;;;;;;5133667;27;20535;-69
2023/10/24 07:49:55;;;;;;;15.43;13.70;;;12.10;1.00;;;;;;5124758;27;20471;-69
2023/10/24 07:52:22;;;;;;;15.23;13.63;;;12.10;1.00;;;;;;5139456;27;20569;-68
2023/10/24 07:54:49;;;;;;;15.50;14.00;;;12.20;1.00;;;;;;5141858;27;21002;-69
2023/10/24 07:57:18;;;;;;;17.07;13.90;;;12.10;1.00;;;;;;5124792;27;20929;-69
2023/10/24 07:59:45;;;;;;;18.10;13.40;;;12.20;1.00;;;;;;5122941;27;20477;-74
2023/10/24 08:02:11;;;;;;;16.23;14.57;;;12.20;1.00;;;;;;5127418;27;20457;-68
2023/10/24 08:04:38;;;;;;;17.80;14.77;;;12.30;1.00;;;;;;5124315;27;20557;-69
2023/10/24 08:07:05;;;;;;;19.07;15.50;;;12.30;1.00;;;;;;5131515;27;20531;-69
2023/10/24 08:09:32;;;;;;;15.57;14.10;;;12.30;1.00;;;;;;5139731;27;20513;-71
2023/10/24 08:11:59;;;;;;;17.43;14.37;;;12.40;1.00;;;;;;5130222;27;20446;-69
2023/10/24 08:14:28;;;;;;;17.77;16.07;;;12.50;1.00;;;;;;5136516;27;20466;-70
2023/10/24 08:16:54;;;;;;;19.67;14.83;;;12.60;1.00;;;;;;5128943;27;20466;-68
2023/10/24 08:19:21;;;;;;;15.20;13.10;;;12.60;1.00;;;;;;5128711;27;20485;-68
2023/10/24 08:21:48;;;;;;;17.97;15.23;;;12.60;1.00;;;;;;5129894;27;20602;-70
2023/10/24 08:24:16;;;;;;;15.80;14.17;;;12.50;1.00;;;;;;5150383;27;20497;-71
2023/10/24 08:26:42;;;;;;;16.00;14.07;;;12.60;1.00;;;;;;5140103;27;20533;-72
2023/10/24 08:29:09;;;;;;;16.63;14.90;;;12.60;1.00;;;;;;5131488;27;20490;-72
2023/10/24 08:31:38;;;;;;;17.60;15.70;;;12.80;1.00;;;;;;5127835;27;20489;-71
2023/10/24 08:34:04;;;;;;;16.97;14.30;;;12.80;1.00;;;;;;5138018;27;20487;-70
2023/10/24 08:36:32;;;;;;;15.97;14.47;;;12.70;1.00;;;;;;5146656;27;20891;-69
2023/10/24 08:38:58;;;;;;;23.30;15.40;;;12.70;1.00;;;;;;5149542;27;21072;-70
2023/10/24 08:41:26;;;;;;;15.87;14.17;;;12.60;1.00;;;;;;5148980;27;20718;-69
2023/10/24 08:43:53;;;;;;;18.43;15.10;;;12.60;1.00;;;;;;5145727;27;20950;-70
2023/10/24 08:46:21;;;;;;;18.40;14.80;;;12.60;1.00;;;;;;5147501;27;20480;-69
2023/10/24 08:48:50;;;;;;;17.63;15.90;;;12.60;1.00;;;;;;5145960;27;21022;-70
2023/10/24 08:51:17;;;;;;;17.10;15.30;;;12.50;1.00;;;;;;5150390;27;20476;-69
2023/10/24 08:53:44;;;;;;;16.47;14.97;;;12.70;1.00;;;;;;5148755;27;20472;-70
2023/10/24 08:56:13;;;;;;;16.90;15.20;;;12.70;1.00;;;;;;5149787;27;20461;-76
2023/10/24 08:58:43;;;;;;;17.10;15.30;;;12.70;1.00;;;;;;5150007;27;20556;-72
2023/10/24 09:01:11;;;;;;;16.23;14.73;;;12.80;1.00;;;;;;5150687;27;20456;-68
2023/10/24 09:03:39;;;;;;;18.37;16.47;;;12.80;1.00;;;;;;5144953;27;20552;-71
2023/10/24 09:06:08;;;;;;;16.43;14.73;;;12.80;1.00;;;;;;5138630;27;20468;-70
2023/10/24 09:08:35;;;;;;;18.00;14.97;;;12.90;1.00;;;;;;5144848;27;20552;-70
2023/10/24 09:11:02;;;;;;;17.63;15.50;;;13.00;1.00;;;;;;5134893;27;20450;-69
2023/10/24 09:13:33;;;;;;;16.47;14.67;;;13.00;1.00;;;;;;5136700;27;20506;-69
2023/10/24 09:16:08;;;;;;;20.57;14.80;;;13.10;1.00;;;;;;5133839;27;20462;-68
2023/10/24 09:18:37;;;;;;;16.63;15.10;;;13.30;1.00;;;;;;5128095;27;20473;-70
2023/10/24 09:21:08;;;;;;;17.07;14.43;;;13.30;1.00;;;;;;5125501;27;20514;-70
2023/10/24 09:23:36;;;;;;;16.13;13.50;;;13.40;1.00;;;;;;5129185;27;20832;-69
2023/10/24 09:26:04;;;;;;;17.10;15.07;;;13.70;1.00;;;;;;5129413;27;20994;-70
2023/10/24 09:28:34;;;;;;;23.23;17.00;;;13.70;1.00;;;;;;5144176;27;20466;-70
2023/10/24 09:31:03;;;;;;;16.00;14.47;;;13.60;1.00;;;;;;5150393;27;20518;-72
2023/10/24 09:33:30;;;;;;;16.23;14.10;;;13.50;1.00;;;;;;5148661;27;20919;-72
2023/10/24 09:35:57;;;;;;;15.30;13.90;;;13.50;1.00;;;;;;5124793;27;20487;-73
2023/10/24 09:38:26;;;;;;;18.67;15.60;;;13.40;1.00;;;;;;5128528;27;20511;-74
2023/10/24 09:40:54;;;;;;;18.17;16.27;;;13.40;1.00;;;;;;5125578;27;20478;-73
2023/10/24 09:43:22;;;;;;;15.43;13.90;;;13.40;1.00;;;;;;5130716;27;20938;-75
2023/10/24 09:45:51;;;;;;;15.07;13.40;;;13.40;1.00;;;;;;5129360;27;20462;-74
2023/10/24 09:48:19;;;;;;;14.83;13.33;;;13.50;1.00;;;;;;5137236;27;20552;-74
2023/10/24 09:50:47;;;;;;;17.00;13.70;;;13.50;1.00;;;;;;5139916;27;20545;-75
2023/10/24 09:53:18;;;;;;;16.13;13.30;;;13.60;1.00;;;;;;5133718;27;20458;-74
2023/10/24 09:55:49;;;;;;;15.70;13.93;;;13.60;1.00;;;;;;5129166;27;21140;-75
2023/10/24 09:58:18;;;;;;;20.30;15.07;;;13.50;1.00;;;;;;5145816;27;20472;-73
2023/10/24 10:00:45;;;;;;;16.43;14.73;;;13.40;1.00;;;;;;5126668;27;20487;-72
2023/10/24 10:03:13;;;;;;;18.90;16.67;;;13.50;1.00;;;;;;5124566;27;21870;-74
2023/10/24 10:05:41;;;;;;;17.27;15.33;;;13.60;1.00;;;;;;5123623;27;20463;-74
2023/10/24 10:08:09;;;;;;;14.30;12.90;;;13.60;1.00;;;;;;5126186;27;20582;-74
2023/10/24 10:10:38;;;;;;;16.17;14.13;;;13.70;1.00;;;;;;5126596;27;20460;-73
2023/10/24 10:13:09;;;;;;;16.83;14.93;;;13.70;1.00;;;;;;5132474;27;20449;-75
2023/10/24 10:16:06;;;;;;;18.80;14.33;;;13.60;1.00;;;;;;5150215;27;20465;-74
2023/10/24 10:18:55;;;;;;;15.70;14.30;;;13.40;1.00;;;;;;5141104;27;20481;-73
2023/10/24 10:21:35;;;;;;;15.30;13.63;;;13.50;1.00;;;;;;5137055;27;20544;-74
2023/10/24 10:24:25;;;;;;;18.60;14.07;;;13.20;1.00;;;;;;5127530;27;20449;-76
2023/10/24 10:27:04;;;;;;;18.23;14.67;;;13.10;1.00;;;;;;5124047;27;20437;-74
2023/10/24 10:29:45;;;;;;;15.13;13.63;;;13.10;1.00;;;;;;5143385;27;21288;-75
2023/10/24 10:32:20;;;;;;;18.73;14.07;;;13.30;1.00;;;;;;5146524;27;20438;-72
2023/10/24 10:34:47;;;;;;;17.10;15.33;;;13.50;1.00;;;;;;5135365;27;20483;-72
2023/10/24 10:37:14;;;;;;;21.43;15.43;;;13.50;1.00;;;;;;5133417;27;20430;-73
2023/10/24 10:39:41;;;;;;;16.80;14.73;;;13.70;1.00;;;;;;5145221;27;20539;-69
2023/10/24 10:42:47;;;;;;;16.07;14.47;;;13.90;1.00;;;;;;5126290;27;20449;-72
2023/10/24 10:45:26;;;;;;;19.20;17.30;;;13.90;1.00;;;;;;5121876;27;20451;-69
2023/10/24 10:47:56;;;;;;;16.73;14.43;;;14.10;1.00;;;;;;5125248;27;20967;-73
2023/10/24 10:50:25;;;;;;;15.00;13.50;;;14.20;1.00;;;;;;5133536;27;20481;-70
2023/10/24 10:53:01;;;;;;;15.33;13.67;;;14.20;1.00;;;;;;5127035;27;20449;-69
2023/10/24 10:55:34;;;;;;;14.10;12.63;;;14.10;1.00;;;;;;5124407;27;20903;-72
2023/10/24 10:58:20;;;;;;;14.97;13.57;;;14.20;1.00;;;;;;5147387;27;20534;-69
2023/10/24 11:01:05;;;;;;;13.97;12.47;;;14.20;1.00;;;;;;5124246;27;20465;-72
2023/10/24 11:03:39;;;;;;;14.10;12.60;;;14.20;1.00;;;;;;5122444;27;21166;-71
2023/10/24 11:06:11;;;;;;;15.70;13.80;;;14.20;1.00;;;;;;5130490;27;20531;-70
2023/10/24 11:08:40;;;;;;;14.27;12.87;;;14.30;1.00;;;;;;5139551;27;21070;-71
2023/10/24 11:11:09;;;;;;;18.47;15.30;;;14.50;1.00;;;;;;5126978;27;20550;-71
2023/10/24 11:13:40;;;;;;;14.47;13.17;;;14.50;1.00;;;;;;5125382;27;20471;-69
2023/10/24 11:16:10;;;;;;;15.13;13.43;;;14.50;1.00;;;;;;5128295;27;20456;-71
2023/10/24 11:18:37;;;;;;;15.83;14.23;;;14.50;1.00;;;;;;5141514;27;20608;-71
2023/10/24 11:21:06;;;;;;;15.97;14.37;;;14.60;1.00;;;;;;5132495;27;20493;-73
2023/10/24 11:23:33;;;;;;;14.03;12.80;;;14.70;1.00;;;;;;5128639;27;20991;-69
2023/10/24 11:26:01;;;;;;;14.60;13.10;;;14.60;1.00;;;;;;5126757;27;20459;-71
2023/10/24 11:28:28;;;;;;;16.07;14.40;;;14.70;1.00;;;;;;5140082;27;20451;-72
2023/10/24 11:30:56;;;;;;;16.30;13.20;;;14.70;1.00;;;;;;5146423;27;20565;-75
2023/10/24 11:33:26;;;;;;;16.30;14.40;;;14.70;1.00;;;;;;5144869;27;20542;-69
2023/10/24 11:35:53;;;;;;;15.70;14.10;;;14.80;1.00;;;;;;5144641;27;20900;-68
2023/10/24 11:38:19;;;;;;;16.77;14.80;;;14.60;1.00;;;;;;5146732;27;20564;-69
2023/10/24 11:40:47;;;;;;;16.37;14.30;;;14.60;1.00;;;;;;5126168;27;20481;-68
2023/10/24 11:43:17;;;;;;;14.37;12.90;;;14.80;1.00;;;;;;5127970;27;20904;-71
2023/10/24 11:45:45;;;;;;;16.43;14.83;;;14.90;1.00;;;;;;5148314;27;20452;-68
2023/10/24 11:48:13;;;;;;;15.10;13.60;;;14.90;1.00;;;;;;5149855;27;20467;-66
2023/10/24 11:50:44;;;;;;;17.70;14.10;;;14.90;1.00;;;;;;5147847;27;20931;-73
2023/10/24 11:53:11;;;;;;;15.77;14.17;;;14.80;1.00;;;;;;5139764;27;20464;-73
2023/10/24 11:55:39;;;;;;;16.63;13.80;;;14.80;1.00;;;;;;5131258;27;20466;-73
2023/10/24 11:58:11;;;;;;;16.80;15.10;;;14.90;1.00;;;;;;5153058;27;20455;-73
2023/10/24 12:00:41;;;;;;;16.00;13.93;;;14.90;1.00;;;;;;5150110;27;20478;-72
2023/10/24 12:03:08;;;;;;;14.87;13.40;;;15.00;1.00;;;;;;5145360;27;20452;-72
2023/10/24 12:05:36;;;;;;;16.70;13.90;;;14.90;1.00;;;;;;5130770;27;20525;-75
2023/10/24 12:08:06;;;;;;;15.03;13.63;;;14.90;1.00;;;;;;5128206;27;20885;-72
2023/10/24 12:10:34;;;;;;;15.90;14.40;;;15.00;1.00;;;;;;5131102;27;20525;-72
2023/10/24 12:13:04;;;;;;;14.53;13.07;;;14.80;1.00;;;;;;5126318;27;20553;-72
2023/10/24 12:15:31;;;;;;;14.20;12.90;;;14.90;1.00;;;;;;5129455;27;20555;-72
2023/10/24 12:18:04;;;;;;;14.97;13.47;;;14.80;1.00;;;;;;5128882;27;20838;-71
2023/10/24 12:20:32;;;;;;;16.50;14.73;;;14.60;1.00;;;;;;5136920;27;20474;-73
2023/10/24 12:22:59;;;;;;;15.50;14.00;;;14.50;1.00;;;;;;5128791;27;21023;-74
2023/10/24 12:25:28;;;;;;;16.40;14.60;;;14.40;1.00;;;;;;5132886;27;20511;-75
2023/10/24 12:27:55;;;;;;;15.60;14.00;;;14.40;1.00;;;;;;5138462;27;20471;-76
2023/10/24 12:30:22;;;;;;;16.13;14.10;;;14.40;1.00;;;;;;5127654;27;20487;-75
2023/10/24 12:32:49;;;;;;;15.67;14.23;;;14.30;1.00;;;;;;5136768;27;20465;-73
2023/10/24 12:35:16;;;;;;;15.40;13.80;;;14.30;1.00;;;;;;5128785;27;20610;-72
2023/10/24 12:37:43;;;;;;;14.50;13.10;;;14.30;1.00;;;;;;5125745;27;20464;-73
2023/10/24 12:40:11;;;;;;;16.67;15.07;;;14.20;1.00;;;;;;5131295;27;20970;-72
2023/10/24 12:42:39;;;;;;;16.10;14.47;;;14.20;1.00;;;;;;5141230;27;20499;-72